createdAt,value
2022-12-25T00:00:47.490Z,993.58
2022-12-25T00:01:47.364Z,993.55
2022-12-25T00:02:47.446Z,993.58
2022-12-25T00:03:47.500Z,993.56
2022-12-25T00:04:47.349Z,993.61
2022-12-25T00:05:47.329Z,993.54
2022-12-25T00:06:47.331Z,993.52
2022-12-25T00:07:47.308Z,993.51
2022-12-25T00:08:47.293Z,993.49
2022-12-25T00:09:47.291Z,993.53
2022-12-25T00:10:47.284Z,993.53
2022-12-25T00:11:47.276Z,993.59
2022-12-25T00:12:47.343Z,993.60
2022-12-25T00:13:47.251Z,993.55
2022-12-25T00:14:47.254Z,993.54
2022-12-25T00:15:47.301Z,993.61
2022-12-25T00:16:47.342Z,993.64
2022-12-25T00:17:47.231Z,993.61
2022-12-25T00:18:47.249Z,993.64
2022-12-25T00:19:47.225Z,993.64
2022-12-25T00:20:47.197Z,993.57
2022-12-25T00:21:47.200Z,993.56
2022-12-25T00:22:47.219Z,993.51
2022-12-25T00:23:47.203Z,993.56
2022-12-25T00:24:47.165Z,993.47
2022-12-25T00:27:26.871Z,993.55
2022-12-25T00:28:26.873Z,993.51
2022-12-25T00:29:26.858Z,993.46
2022-12-25T00:30:26.846Z,993.45
2022-12-25T00:31:27.793Z,993.43
2022-12-25T00:32:26.825Z,993.40
2022-12-25T00:33:26.818Z,993.41
2022-12-25T00:34:26.815Z,993.51
2022-12-25T00:35:26.805Z,993.45
2022-12-25T00:36:26.986Z,993.46
2022-12-25T00:37:26.815Z,993.46
2022-12-25T00:38:26.780Z,993.41
2022-12-25T00:39:26.777Z,993.39
2022-12-25T00:40:28.812Z,993.36
2022-12-25T00:41:27.848Z,993.38
2022-12-25T00:42:27.852Z,993.47
2022-12-25T00:43:27.837Z,993.53
2022-12-25T00:44:27.836Z,993.56
2022-12-25T00:45:27.921Z,993.57
2022-12-25T00:46:27.905Z,993.62
2022-12-25T00:47:27.812Z,993.62
2022-12-25T00:48:27.789Z,993.60
2022-12-25T00:49:27.786Z,993.69
2022-12-25T00:50:27.773Z,993.70
2022-12-25T00:51:27.768Z,993.74
2022-12-25T00:52:27.771Z,993.74
2022-12-25T00:53:27.756Z,993.80
2022-12-25T00:54:27.752Z,993.81
2022-12-25T00:55:27.747Z,993.84
2022-12-25T00:56:27.735Z,993.87
2022-12-25T00:57:27.720Z,993.89
2022-12-25T00:58:27.716Z,993.96
2022-12-25T00:59:27.709Z,993.93
2022-12-25T01:00:27.704Z,993.94
2022-12-25T01:01:27.800Z,993.91
2022-12-25T01:02:27.925Z,993.91
2022-12-25T01:03:27.774Z,993.93
2022-12-25T01:04:27.683Z,993.93
2022-12-25T01:05:27.652Z,993.95
2022-12-25T01:06:27.645Z,993.93
2022-12-25T01:07:27.648Z,993.95
2022-12-25T01:08:27.622Z,994.01
2022-12-25T01:09:27.647Z,994.00
2022-12-25T01:10:27.643Z,994.00
2022-12-25T01:11:27.610Z,993.99
2022-12-25T01:12:29.330Z,993.90
2022-12-25T01:13:28.333Z,993.91
2022-12-25T01:14:27.589Z,993.91
2022-12-25T01:15:27.566Z,993.87
2022-12-25T01:16:27.692Z,993.82
2022-12-25T01:17:27.553Z,993.86
2022-12-25T01:18:28.241Z,993.89
2022-12-25T01:19:27.543Z,993.85
2022-12-25T01:20:28.316Z,993.84
2022-12-25T01:21:27.527Z,993.86
2022-12-25T01:22:27.521Z,993.78
2022-12-25T01:23:27.504Z,993.78
2022-12-25T01:24:27.506Z,993.83
2022-12-25T01:25:27.495Z,993.84
2022-12-25T01:26:27.480Z,993.80
2022-12-25T01:27:27.483Z,993.83
2022-12-25T01:28:27.473Z,993.82
2022-12-25T01:29:27.468Z,993.85
2022-12-25T01:30:27.457Z,993.86
2022-12-25T01:31:27.481Z,993.85
2022-12-25T01:32:27.434Z,993.86
2022-12-25T01:33:27.463Z,993.89
2022-12-25T01:34:27.418Z,993.86
2022-12-25T01:35:27.414Z,993.82
2022-12-25T01:36:27.412Z,993.86
2022-12-25T01:37:27.395Z,993.87
2022-12-25T01:38:27.411Z,993.88
2022-12-25T01:39:27.407Z,993.93
2022-12-25T01:40:27.395Z,993.92
2022-12-25T01:41:27.854Z,993.95
2022-12-25T01:42:27.357Z,993.92
2022-12-25T01:43:27.345Z,993.97
2022-12-25T01:44:27.334Z,993.94
2022-12-25T01:45:27.375Z,993.90
2022-12-25T01:46:27.336Z,993.90
2022-12-25T01:47:27.320Z,993.88
2022-12-25T01:48:27.309Z,993.88
2022-12-25T01:49:27.310Z,993.87
2022-12-25T01:50:27.305Z,993.87
2022-12-25T01:51:27.280Z,993.91
2022-12-25T01:52:27.304Z,993.94
2022-12-25T01:53:27.285Z,993.96
2022-12-25T01:54:27.254Z,993.91
2022-12-25T01:55:27.252Z,993.88
2022-12-25T01:56:28.822Z,993.90
2022-12-25T01:57:27.276Z,993.88
2022-12-25T01:58:27.222Z,993.94
2022-12-25T01:59:27.220Z,993.89
2022-12-25T02:00:27.228Z,993.92
2022-12-25T02:01:27.391Z,993.92
2022-12-25T02:02:27.299Z,993.90
2022-12-25T02:03:27.273Z,993.93
2022-12-25T02:04:27.226Z,993.96
2022-12-25T02:05:27.167Z,994.02
2022-12-25T02:06:27.823Z,994.07
2022-12-25T02:07:27.151Z,994.02
2022-12-25T02:08:27.148Z,994.00
2022-12-25T02:09:27.134Z,993.99
2022-12-25T02:10:27.122Z,993.98
2022-12-25T02:11:27.113Z,993.94
2022-12-25T02:12:27.131Z,993.98
2022-12-25T02:13:27.107Z,993.93
2022-12-25T02:14:27.100Z,993.99
2022-12-25T02:15:27.087Z,994.00
2022-12-25T02:16:27.799Z,994.01
2022-12-25T02:17:27.174Z,994.01
2022-12-25T02:18:59.809Z,994.02
2022-12-25T02:19:27.053Z,993.97
2022-12-25T02:20:27.039Z,993.98
2022-12-25T02:21:27.085Z,993.95
2022-12-25T02:22:27.033Z,993.93
2022-12-25T02:23:27.042Z,993.95
2022-12-25T02:24:27.027Z,993.91
2022-12-25T02:25:27.035Z,993.89
2022-12-25T02:26:27.001Z,993.83
2022-12-25T02:27:26.986Z,993.90
2022-12-25T02:28:26.992Z,993.86
2022-12-25T02:29:27.007Z,993.83
2022-12-25T02:30:26.966Z,993.79
2022-12-25T02:31:26.987Z,993.82
2022-12-25T02:32:26.971Z,993.83
2022-12-25T02:33:26.945Z,993.81
2022-12-25T02:34:27.883Z,993.79
2022-12-25T02:35:26.936Z,993.72
2022-12-25T02:36:26.908Z,993.71
2022-12-25T02:37:26.913Z,993.70
2022-12-25T02:38:26.903Z,993.66
2022-12-25T02:39:26.905Z,993.72
2022-12-25T02:40:26.922Z,993.75
2022-12-25T02:41:27.876Z,993.72
2022-12-25T02:42:27.781Z,993.76
2022-12-25T02:43:26.865Z,993.75
2022-12-25T02:44:26.861Z,993.74
2022-12-25T02:45:26.858Z,993.79
2022-12-25T02:46:26.925Z,993.75
2022-12-25T02:47:26.832Z,993.71
2022-12-25T02:48:26.855Z,993.71
2022-12-25T02:49:26.824Z,993.68
2022-12-25T02:50:26.808Z,993.63
2022-12-25T02:51:26.811Z,993.63
2022-12-25T02:52:26.799Z,993.63
2022-12-25T02:53:26.798Z,993.56
2022-12-25T02:54:26.790Z,993.66
2022-12-25T02:55:26.786Z,993.55
2022-12-25T02:56:26.773Z,993.70
2022-12-25T02:57:26.746Z,993.62
2022-12-25T02:58:26.756Z,993.66
2022-12-25T02:59:26.749Z,993.67
2022-12-25T03:00:26.735Z,993.64
2022-12-25T03:01:26.808Z,993.64
2022-12-25T03:02:26.801Z,993.57
2022-12-25T03:03:26.705Z,993.57
2022-12-25T03:04:26.708Z,993.54
2022-12-25T03:05:26.676Z,993.58
2022-12-25T03:06:26.673Z,993.59
2022-12-25T03:07:26.659Z,993.52
2022-12-25T03:08:26.661Z,993.52
2022-12-25T03:09:26.646Z,993.57
2022-12-25T03:10:26.639Z,993.53
2022-12-25T03:11:26.637Z,993.56
2022-12-25T03:12:26.650Z,993.58
2022-12-25T03:13:26.630Z,993.57
2022-12-25T03:14:26.659Z,993.65
2022-12-25T03:15:26.597Z,993.66
2022-12-25T03:16:26.685Z,993.70
2022-12-25T03:17:26.577Z,993.64
2022-12-25T03:18:26.609Z,993.68
2022-12-25T03:19:26.587Z,993.71
2022-12-25T03:20:26.576Z,993.69
2022-12-25T03:21:26.553Z,993.73
2022-12-25T03:22:26.558Z,993.67
2022-12-25T03:23:26.536Z,993.69
2022-12-25T03:24:26.540Z,993.68
2022-12-25T03:25:26.535Z,993.69
2022-12-25T03:26:26.506Z,993.73
2022-12-25T03:27:26.496Z,993.75
2022-12-25T03:28:26.505Z,993.75
2022-12-25T03:29:31.620Z,993.78
2022-12-25T03:30:28.554Z,993.77
2022-12-25T03:31:26.544Z,993.77
2022-12-25T03:32:27.296Z,993.77
2022-12-25T03:33:44.303Z,993.79
2022-12-25T03:34:28.443Z,993.84
2022-12-25T03:35:26.433Z,993.75
2022-12-25T03:36:26.448Z,993.78
2022-12-25T03:37:26.425Z,993.78
2022-12-25T03:38:26.442Z,993.77
2022-12-25T03:39:26.405Z,993.74
2022-12-25T03:40:26.417Z,993.76
2022-12-25T03:41:26.384Z,993.65
2022-12-25T03:42:26.407Z,993.71
2022-12-25T03:43:26.371Z,993.73
2022-12-25T03:44:26.367Z,993.70
2022-12-25T03:45:26.367Z,993.72
2022-12-25T03:46:26.388Z,993.73
2022-12-25T03:47:26.339Z,993.74
2022-12-25T03:48:26.327Z,993.70
2022-12-25T03:49:26.344Z,993.74
2022-12-25T03:50:26.333Z,993.68
2022-12-25T03:51:26.312Z,993.74
2022-12-25T03:53:33.144Z,993.75
2022-12-25T03:54:33.143Z,993.68
2022-12-25T03:55:33.130Z,993.65
2022-12-25T03:56:33.124Z,993.64
2022-12-25T03:57:35.016Z,993.67
2022-12-25T03:58:34.200Z,993.67
2022-12-25T03:59:34.193Z,993.68
2022-12-25T04:00:34.201Z,993.64
2022-12-25T04:01:34.258Z,993.59
2022-12-25T04:02:34.379Z,993.58
2022-12-25T04:03:34.273Z,993.59
2022-12-25T04:04:34.157Z,993.63
2022-12-25T04:05:34.142Z,993.60
2022-12-25T04:06:34.170Z,993.58
2022-12-25T04:07:34.131Z,993.63
2022-12-25T04:08:34.121Z,993.62
2022-12-25T04:09:34.113Z,993.62
2022-12-25T04:10:34.101Z,993.69
2022-12-25T04:11:34.103Z,993.67
2022-12-25T04:12:34.085Z,993.70
2022-12-25T04:13:34.105Z,993.71
2022-12-25T04:14:34.103Z,993.68
2022-12-25T04:15:34.074Z,993.69
2022-12-25T04:16:34.054Z,993.71
2022-12-25T04:17:34.067Z,993.70
2022-12-25T04:18:34.039Z,993.69
2022-12-25T04:19:35.541Z,993.67
2022-12-25T04:20:34.030Z,993.67
2022-12-25T04:21:34.023Z,993.61
2022-12-25T04:22:34.019Z,993.63
2022-12-25T04:23:34.026Z,993.61
2022-12-25T04:24:34.051Z,993.59
2022-12-25T04:25:33.989Z,993.63
2022-12-25T04:26:33.990Z,993.61
2022-12-25T04:27:33.982Z,993.55
2022-12-25T04:28:33.961Z,993.62
2022-12-25T04:29:33.965Z,993.61
2022-12-25T04:30:33.956Z,993.58
2022-12-25T04:31:33.963Z,993.57
2022-12-25T04:32:33.930Z,993.50
2022-12-25T04:33:33.952Z,993.48
2022-12-25T04:34:33.921Z,993.50
2022-12-25T04:35:33.912Z,993.41
2022-12-25T04:36:33.902Z,993.42
2022-12-25T04:37:33.890Z,993.41
2022-12-25T04:38:33.884Z,993.38
2022-12-25T04:39:33.875Z,993.45
2022-12-25T04:40:33.880Z,993.35
2022-12-25T04:41:33.887Z,993.35
2022-12-25T04:42:33.862Z,993.38
2022-12-25T04:43:33.845Z,993.34
2022-12-25T04:44:33.850Z,993.25
2022-12-25T04:45:33.827Z,993.27
2022-12-25T04:46:34.001Z,993.32
2022-12-25T04:47:33.810Z,993.39
2022-12-25T04:48:33.808Z,993.33
2022-12-25T04:49:33.788Z,993.30
2022-12-25T04:50:33.787Z,993.31
2022-12-25T04:51:33.807Z,993.25
2022-12-25T04:52:33.775Z,993.19
2022-12-25T04:53:33.768Z,993.24
2022-12-25T04:54:33.752Z,993.26
2022-12-25T04:55:33.734Z,993.21
2022-12-25T04:56:38.602Z,993.25
2022-12-25T04:57:34.741Z,993.25
2022-12-25T04:58:33.711Z,993.17
2022-12-25T04:59:33.701Z,993.10
2022-12-25T05:00:33.692Z,993.19
2022-12-25T05:01:33.821Z,993.13
2022-12-25T05:02:34.013Z,993.07
2022-12-25T05:03:34.741Z,993.07
2022-12-25T05:04:33.665Z,993.04
2022-12-25T05:05:33.657Z,993.08
2022-12-25T05:06:33.648Z,993.12
2022-12-25T05:07:33.659Z,993.13
2022-12-25T05:08:33.640Z,993.15
2022-12-25T05:09:33.630Z,993.14
2022-12-25T05:10:33.623Z,993.08
2022-12-25T05:11:33.610Z,993.11
2022-12-25T05:12:33.636Z,993.15
2022-12-25T05:13:34.522Z,993.17
2022-12-25T05:14:34.105Z,993.19
2022-12-25T05:15:33.673Z,993.22
2022-12-25T05:16:33.667Z,993.29
2022-12-25T05:17:35.120Z,993.25
2022-12-25T05:18:33.561Z,993.22
2022-12-25T05:19:34.523Z,993.27
2022-12-25T05:20:39.704Z,993.25
2022-12-25T05:21:35.599Z,993.21
2022-12-25T05:22:33.527Z,993.21
2022-12-25T05:23:33.522Z,993.19
2022-12-25T05:24:33.513Z,993.22
2022-12-25T05:25:33.494Z,993.17
2022-12-25T05:26:33.486Z,993.14
2022-12-25T05:27:34.039Z,993.15
2022-12-25T05:28:33.468Z,993.10
2022-12-25T05:29:33.468Z,993.13
2022-12-25T05:30:33.457Z,993.08
2022-12-25T05:31:33.519Z,993.15
2022-12-25T05:32:33.442Z,993.16
2022-12-25T05:33:33.425Z,993.23
2022-12-25T05:34:33.428Z,993.30
2022-12-25T05:35:33.421Z,993.29
2022-12-25T05:36:33.407Z,993.30
2022-12-25T05:37:33.393Z,993.32
2022-12-25T05:38:33.412Z,993.30
2022-12-25T05:39:33.383Z,993.33
2022-12-25T05:40:33.378Z,993.42
2022-12-25T05:41:34.637Z,993.40
2022-12-25T05:42:34.349Z,993.37
2022-12-25T05:43:34.030Z,993.39
2022-12-25T05:44:33.390Z,993.39
2022-12-25T05:45:33.341Z,993.37
2022-12-25T05:46:33.403Z,993.41
2022-12-25T05:47:33.318Z,993.40
2022-12-25T05:48:34.159Z,993.36
2022-12-25T05:49:33.311Z,993.33
2022-12-25T05:50:33.292Z,993.32
2022-12-25T05:51:33.295Z,993.31
2022-12-25T05:52:33.280Z,993.28
2022-12-25T05:53:33.292Z,993.38
2022-12-25T05:54:33.299Z,993.32
2022-12-25T05:55:33.248Z,993.34
2022-12-25T05:56:33.253Z,993.27
2022-12-25T05:57:33.261Z,993.28
2022-12-25T05:58:33.216Z,993.27
2022-12-25T05:59:33.225Z,993.29
2022-12-25T06:00:33.218Z,993.24
2022-12-25T06:01:33.328Z,993.31
2022-12-25T06:02:33.492Z,993.36
2022-12-25T06:03:33.229Z,993.30
2022-12-25T06:04:33.173Z,993.30
2022-12-25T06:05:33.177Z,993.36
2022-12-25T06:06:33.167Z,993.34
2022-12-25T06:07:33.183Z,993.32
2022-12-25T06:08:33.139Z,993.33
2022-12-25T06:09:34.552Z,993.34
2022-12-25T06:10:33.162Z,993.26
2022-12-25T06:11:33.137Z,993.31
2022-12-25T06:12:33.144Z,993.29
2022-12-25T06:13:33.115Z,993.24
2022-12-25T06:14:33.110Z,993.26
2022-12-25T06:15:34.027Z,993.30
2022-12-25T06:16:37.991Z,993.21
2022-12-25T06:17:35.084Z,993.23
2022-12-25T06:18:33.065Z,993.24
2022-12-25T06:19:33.074Z,993.33
2022-12-25T06:20:33.051Z,993.30
2022-12-25T06:21:33.046Z,993.28
2022-12-25T06:22:33.029Z,993.28
2022-12-25T06:23:33.085Z,993.31
2022-12-25T06:24:33.057Z,993.35
2022-12-25T06:25:33.016Z,993.27
2022-12-25T06:26:33.039Z,993.30
2022-12-25T06:27:32.996Z,993.27
2022-12-25T06:28:32.996Z,993.26
2022-12-25T06:29:33.608Z,993.27
2022-12-25T06:30:33.544Z,993.27
2022-12-25T06:31:33.012Z,993.23
2022-12-25T06:32:32.966Z,993.20
2022-12-25T06:33:32.966Z,993.19
2022-12-25T06:34:32.952Z,993.19
2022-12-25T06:35:32.931Z,993.16
2022-12-25T06:36:32.927Z,993.13
2022-12-25T06:37:32.959Z,993.10
2022-12-25T06:38:32.904Z,993.09
2022-12-25T06:39:32.927Z,993.09
2022-12-25T06:40:32.898Z,993.08
2022-12-25T06:41:32.886Z,993.13
2022-12-25T06:42:32.873Z,993.17
2022-12-25T06:43:32.871Z,993.06
2022-12-25T06:44:32.867Z,993.05
2022-12-25T06:45:32.912Z,993.10
2022-12-25T06:46:33.543Z,993.05
2022-12-25T06:47:32.838Z,993.04
2022-12-25T06:48:32.836Z,993.03
2022-12-25T06:49:32.831Z,992.99
2022-12-25T06:50:32.829Z,992.97
2022-12-25T06:51:32.829Z,993.02
2022-12-25T06:52:32.932Z,993.02
2022-12-25T06:53:39.816Z,993.04
2022-12-25T06:54:34.788Z,993.05
2022-12-25T06:55:32.782Z,993.08
2022-12-25T06:56:32.773Z,993.07
2022-12-25T06:57:32.825Z,993.09
2022-12-25T06:58:32.767Z,993.15
2022-12-25T06:59:32.743Z,993.15
2022-12-25T07:00:32.759Z,993.17
2022-12-25T07:01:32.804Z,993.17
2022-12-25T07:02:32.904Z,993.14
2022-12-25T07:03:32.717Z,993.20
2022-12-25T07:04:32.711Z,993.20
2022-12-25T07:05:33.149Z,993.18
2022-12-25T07:06:32.697Z,993.23
2022-12-25T07:07:32.703Z,993.21
2022-12-25T07:08:32.678Z,993.21
2022-12-25T07:09:33.547Z,993.14
2022-12-25T07:10:32.663Z,993.14
2022-12-25T07:11:32.637Z,993.12
2022-12-25T07:12:32.647Z,993.11
2022-12-25T07:13:32.631Z,993.04
2022-12-25T07:14:32.650Z,993.03
2022-12-25T07:15:33.638Z,993.02
2022-12-25T07:16:32.683Z,993.02
2022-12-25T07:17:32.601Z,992.98
2022-12-25T07:18:32.590Z,992.99
2022-12-25T07:19:32.594Z,993.02
2022-12-25T07:20:32.603Z,992.98
2022-12-25T07:21:32.567Z,992.97
2022-12-25T07:22:32.569Z,993.01
2022-12-25T07:23:32.552Z,992.95
2022-12-25T07:24:32.542Z,992.95
2022-12-25T07:25:37.197Z,993.00
2022-12-25T07:26:34.528Z,992.99
2022-12-25T07:27:32.541Z,993.01
2022-12-25T07:28:32.538Z,993.00
2022-12-25T07:29:32.512Z,992.99
2022-12-25T07:30:32.495Z,993.00
2022-12-25T07:31:32.500Z,993.01
2022-12-25T07:32:32.506Z,993.02
2022-12-25T07:33:32.498Z,992.98
2022-12-25T07:34:32.504Z,992.97
2022-12-25T07:35:32.449Z,993.00
2022-12-25T07:36:33.055Z,993.03
2022-12-25T07:37:32.461Z,993.04
2022-12-25T07:38:32.432Z,993.08
2022-12-25T07:39:32.431Z,993.13
2022-12-25T07:40:32.459Z,993.11
2022-12-25T07:41:32.426Z,993.12
2022-12-25T07:42:32.406Z,993.17
2022-12-25T07:43:32.389Z,993.17
2022-12-25T07:44:32.407Z,993.22
2022-12-25T07:45:32.418Z,993.21
2022-12-25T07:46:32.365Z,993.24
2022-12-25T07:47:32.371Z,993.21
2022-12-25T07:48:32.365Z,993.17
2022-12-25T07:49:32.361Z,993.16
2022-12-25T07:50:32.377Z,993.09
2022-12-25T07:51:32.343Z,993.09
2022-12-25T07:52:36.622Z,993.05
2022-12-25T07:53:33.310Z,993.01
2022-12-25T07:54:32.281Z,992.95
2022-12-25T07:55:33.289Z,992.91
2022-12-25T07:56:32.295Z,992.83
2022-12-25T07:57:32.285Z,992.88
2022-12-25T07:58:32.275Z,992.90
2022-12-25T07:59:32.272Z,992.87
2022-12-25T08:00:32.273Z,992.88
2022-12-25T08:01:32.384Z,992.87
2022-12-25T08:02:32.521Z,992.87
2022-12-25T08:03:32.441Z,992.87
2022-12-25T08:04:32.226Z,992.84
2022-12-25T08:05:32.206Z,992.86
2022-12-25T08:06:32.201Z,992.83
2022-12-25T08:07:33.136Z,992.85
2022-12-25T08:08:32.191Z,992.83
2022-12-25T08:09:32.175Z,992.75
2022-12-25T08:10:32.174Z,992.70
2022-12-25T08:11:32.178Z,992.69
2022-12-25T08:12:32.172Z,992.60
2022-12-25T08:13:32.161Z,992.62
2022-12-25T08:14:32.141Z,992.57
2022-12-25T08:15:32.128Z,992.47
2022-12-25T08:16:32.147Z,992.47
2022-12-25T08:17:32.124Z,992.44
2022-12-25T08:18:32.121Z,992.40
2022-12-25T08:19:33.171Z,992.49
2022-12-25T08:20:34.645Z,992.45
2022-12-25T08:21:32.098Z,992.48
2022-12-25T08:22:32.068Z,992.49
2022-12-25T08:23:32.057Z,992.45
2022-12-25T08:24:37.575Z,992.45
2022-12-25T08:25:38.675Z,992.43
2022-12-25T08:26:32.107Z,992.42
2022-12-25T08:27:32.054Z,992.44
2022-12-25T08:28:32.021Z,992.43
2022-12-25T08:29:32.041Z,992.45
2022-12-25T08:30:32.044Z,992.51
2022-12-25T08:31:32.053Z,992.59
2022-12-25T08:32:33.664Z,992.56
2022-12-25T08:33:31.994Z,992.58
2022-12-25T08:34:32.060Z,992.70
2022-12-25T08:35:31.967Z,992.64
2022-12-25T08:36:31.959Z,992.64
2022-12-25T08:37:31.944Z,992.62
2022-12-25T08:38:31.944Z,992.60
2022-12-25T08:39:31.929Z,992.63
2022-12-25T08:40:31.923Z,992.72
2022-12-25T08:41:31.923Z,992.74
2022-12-25T08:42:31.915Z,992.78
2022-12-25T08:43:31.902Z,992.74
2022-12-25T08:44:31.904Z,992.75
2022-12-25T08:45:35.151Z,992.68
2022-12-25T08:46:33.026Z,992.71
2022-12-25T08:47:31.869Z,992.77
2022-12-25T08:48:32.645Z,992.82
2022-12-25T08:49:31.851Z,992.88
2022-12-25T08:50:31.845Z,992.92
2022-12-25T08:51:31.855Z,992.87
2022-12-25T08:52:31.828Z,992.85
2022-12-25T08:53:31.843Z,992.87
2022-12-25T08:54:31.816Z,992.79
2022-12-25T08:55:31.813Z,992.74
2022-12-25T08:56:31.798Z,992.69
2022-12-25T08:57:31.787Z,992.71
2022-12-25T08:58:31.787Z,992.68
2022-12-25T08:59:31.774Z,992.68
2022-12-25T09:00:31.780Z,992.68
2022-12-25T09:01:31.861Z,992.69
2022-12-25T09:02:32.037Z,992.67
2022-12-25T09:03:31.795Z,992.60
2022-12-25T09:04:31.731Z,992.62
2022-12-25T09:05:31.727Z,992.57
2022-12-25T09:06:31.727Z,992.49
2022-12-25T09:07:31.729Z,992.55
2022-12-25T09:08:33.788Z,992.59
2022-12-25T09:09:31.683Z,992.54
2022-12-25T09:10:31.673Z,992.55
2022-12-25T09:11:31.679Z,992.44
2022-12-25T09:12:31.661Z,992.43
2022-12-25T09:13:31.655Z,992.31
2022-12-25T09:14:31.644Z,992.26
2022-12-25T09:15:31.699Z,992.17
2022-12-25T09:16:31.716Z,992.19
2022-12-25T09:17:31.634Z,992.27
2022-12-25T09:18:31.607Z,992.26
2022-12-25T09:19:31.611Z,992.30
2022-12-25T09:20:31.590Z,992.30
2022-12-25T09:21:31.633Z,992.33
2022-12-25T09:22:31.674Z,992.35
2022-12-25T09:23:31.596Z,992.35
2022-12-25T09:24:31.568Z,992.28
2022-12-25T09:25:31.545Z,992.20
2022-12-25T09:26:31.561Z,992.21
2022-12-25T09:27:31.666Z,992.13
2022-12-25T09:28:31.546Z,992.10
2022-12-25T09:29:31.525Z,992.10
2022-12-25T09:30:31.566Z,992.09
2022-12-25T09:31:31.623Z,992.14
2022-12-25T09:32:31.506Z,992.14
2022-12-25T09:33:31.494Z,992.24
2022-12-25T09:34:31.506Z,992.26
2022-12-25T09:35:31.486Z,992.30
2022-12-25T09:36:31.467Z,992.19
2022-12-25T09:37:31.466Z,992.18
2022-12-25T09:38:31.455Z,992.13
2022-12-25T09:39:31.459Z,992.07
2022-12-25T09:40:31.472Z,992.10
2022-12-25T09:41:31.434Z,992.18
2022-12-25T09:42:31.455Z,992.21
2022-12-25T09:43:31.411Z,992.25
2022-12-25T09:44:31.681Z,992.23
2022-12-25T09:45:31.404Z,992.23
2022-12-25T09:46:37.091Z,992.24
2022-12-25T09:47:33.380Z,992.27
2022-12-25T09:48:31.406Z,992.27
2022-12-25T09:49:31.548Z,992.32
2022-12-25T09:50:31.367Z,992.27
2022-12-25T09:51:32.153Z,992.24
2022-12-25T09:52:31.347Z,992.15
2022-12-25T09:53:31.346Z,992.13
2022-12-25T09:54:31.328Z,992.14
2022-12-25T09:55:31.335Z,992.06
2022-12-25T09:56:31.318Z,992.11
2022-12-25T09:57:32.095Z,992.15
2022-12-25T09:58:31.310Z,992.21
2022-12-25T09:59:31.286Z,992.19
2022-12-25T10:00:31.290Z,992.16
2022-12-25T10:01:31.367Z,992.11
2022-12-25T10:02:31.445Z,992.04
2022-12-25T10:03:31.312Z,991.99
2022-12-25T10:04:33.687Z,991.99
2022-12-25T10:05:32.248Z,991.99
2022-12-25T10:06:31.225Z,991.98
2022-12-25T10:07:32.172Z,992.00
2022-12-25T10:08:31.209Z,991.99
2022-12-25T10:09:31.215Z,991.93
2022-12-25T10:10:31.224Z,991.94
2022-12-25T10:11:31.188Z,991.87
2022-12-25T10:12:31.245Z,991.82
2022-12-25T10:13:31.164Z,991.81
2022-12-25T10:14:31.174Z,991.80
2022-12-25T10:15:31.263Z,991.78
2022-12-25T10:16:31.199Z,991.76
2022-12-25T10:17:31.154Z,991.63
2022-12-25T10:18:31.135Z,991.67
2022-12-25T10:19:31.131Z,991.67
2022-12-25T10:20:31.144Z,991.72
2022-12-25T10:21:31.108Z,991.65
2022-12-25T10:22:31.098Z,991.61
2022-12-25T10:23:31.086Z,991.63
2022-12-25T10:24:31.165Z,991.64
2022-12-25T10:25:31.067Z,991.61
2022-12-25T10:26:31.151Z,991.63
2022-12-25T10:27:31.061Z,991.64
2022-12-25T10:28:31.061Z,991.68
2022-12-25T10:29:31.061Z,991.81
2022-12-25T10:30:31.038Z,991.86
2022-12-25T10:31:31.054Z,991.87
2022-12-25T10:32:31.024Z,991.81
2022-12-25T10:33:31.025Z,991.84
2022-12-25T10:34:30.996Z,991.76
2022-12-25T10:35:31.057Z,991.68
2022-12-25T10:36:31.002Z,991.75
2022-12-25T10:37:30.971Z,991.82
2022-12-25T10:38:31.099Z,991.87
2022-12-25T10:39:30.998Z,991.90
2022-12-25T10:40:30.961Z,991.85
2022-12-25T10:41:30.943Z,991.79
2022-12-25T10:42:31.586Z,991.80
2022-12-25T10:43:30.938Z,991.78
2022-12-25T10:44:30.917Z,991.81
2022-12-25T10:45:32.559Z,991.85
2022-12-25T10:46:30.972Z,991.78
2022-12-25T10:47:30.893Z,991.84
2022-12-25T10:48:30.912Z,991.87
2022-12-25T10:49:31.674Z,991.79
2022-12-25T10:50:30.885Z,991.81
2022-12-25T10:51:31.690Z,991.85
2022-12-25T10:52:30.859Z,991.88
2022-12-25T10:53:30.847Z,991.88
2022-12-25T10:54:30.848Z,991.73
2022-12-25T10:55:32.572Z,991.64
2022-12-25T10:56:30.840Z,991.61
2022-12-25T10:57:30.829Z,991.58
2022-12-25T10:58:30.804Z,991.57
2022-12-25T10:59:30.821Z,991.52
2022-12-25T11:00:30.795Z,991.57
2022-12-25T11:01:30.939Z,991.55
2022-12-25T11:02:30.978Z,991.53
2022-12-25T11:03:30.817Z,991.53
2022-12-25T11:04:30.786Z,991.46
2022-12-25T21:26:23.975Z,988.32
2022-12-25T21:27:23.942Z,988.31
2022-12-25T21:28:23.940Z,988.26
2022-12-25T21:29:23.938Z,988.21
2022-12-25T21:30:23.939Z,988.25
2022-12-25T21:31:25.145Z,988.31
2022-12-25T21:32:25.000Z,988.34
2022-12-25T21:33:24.992Z,988.28
2022-12-25T21:34:24.983Z,988.23
2022-12-25T21:35:24.984Z,988.32
2022-12-25T21:36:24.969Z,988.31
2022-12-25T21:37:24.957Z,988.42
2022-12-25T21:38:24.948Z,988.33
2022-12-25T21:39:24.982Z,988.28
2022-12-25T21:40:24.920Z,988.27
2022-12-25T21:41:24.950Z,988.32
2022-12-25T21:42:24.935Z,988.25
2022-12-25T21:43:24.911Z,988.15
2022-12-25T21:44:24.897Z,988.17
2022-12-25T21:45:24.907Z,988.11
2022-12-25T21:46:24.963Z,988.12
2022-12-25T21:47:24.871Z,988.06
2022-12-25T21:48:24.861Z,988.02
2022-12-25T21:49:24.858Z,988.03
2022-12-25T21:50:24.849Z,988.03
2022-12-25T21:51:24.845Z,988.05
2022-12-25T21:52:24.839Z,988.07
2022-12-25T21:53:24.833Z,988.01
2022-12-25T21:54:24.847Z,988.04
2022-12-25T21:55:24.806Z,988.01
2022-12-25T21:56:24.808Z,987.98
2022-12-25T21:57:24.788Z,988.02
2022-12-25T21:58:24.795Z,988.07
2022-12-25T21:59:24.796Z,988.04
2022-12-25T22:00:24.792Z,988.07
2022-12-25T22:01:24.871Z,988.09
2022-12-25T22:02:25.007Z,988.10
2022-12-25T22:03:24.770Z,988.14
2022-12-25T22:04:24.730Z,988.16
2022-12-25T22:05:24.732Z,988.18
2022-12-25T22:06:25.723Z,988.17
2022-12-25T22:07:24.707Z,988.16
2022-12-25T22:08:24.703Z,988.15
2022-12-25T22:09:24.707Z,988.17
2022-12-25T22:10:24.704Z,988.20
2022-12-25T22:11:24.682Z,988.30
2022-12-25T22:12:30.210Z,988.28
2022-12-25T22:13:26.725Z,988.25
2022-12-25T22:14:52.288Z,988.21
2022-12-25T22:15:25.644Z,988.09
2022-12-25T22:16:24.751Z,988.14
2022-12-25T22:17:24.637Z,988.11
2022-12-25T22:18:24.624Z,988.07
2022-12-25T22:19:24.671Z,987.98
2022-12-25T22:20:24.604Z,988.03
2022-12-25T22:21:24.601Z,988.01
2022-12-25T22:22:27.136Z,988.02
2022-12-25T22:23:24.579Z,988.10
2022-12-25T22:24:24.582Z,988.09
2022-12-25T22:25:24.574Z,988.07
2022-12-25T22:26:24.550Z,988.13
2022-12-25T22:27:24.563Z,988.15
2022-12-25T22:28:24.545Z,988.12
2022-12-25T22:29:24.532Z,988.16
2022-12-25T22:30:26.195Z,988.21
2022-12-25T22:31:24.595Z,988.26
2022-12-25T22:32:24.508Z,988.20
2022-12-25T22:33:25.101Z,988.25
2022-12-25T22:34:24.491Z,988.31
2022-12-25T22:35:24.502Z,988.34
2022-12-25T22:36:24.495Z,988.37
2022-12-25T22:37:24.479Z,988.39
2022-12-25T22:38:24.466Z,988.39
2022-12-25T22:39:24.448Z,988.42
2022-12-25T22:40:25.203Z,988.37
2022-12-25T22:41:29.753Z,988.43
2022-12-25T22:42:27.116Z,988.42
2022-12-25T22:43:43.388Z,988.40
2022-12-25T22:44:26.426Z,988.41
2022-12-25T22:45:24.394Z,988.39
2022-12-25T22:46:24.473Z,988.42
2022-12-25T22:47:24.387Z,988.45
2022-12-25T22:48:24.397Z,988.51
2022-12-25T22:49:24.403Z,988.48
2022-12-25T22:50:24.359Z,988.46
2022-12-25T22:51:24.346Z,988.50
2022-12-25T22:52:24.339Z,988.57